Terminal Aerodrome Forecast
Issued by NWS

Home | Current Version | Previous Version | Text Only | Print | Product List | Glossary On
Versions: 1 2 3 4 5 6 7 8 9 10 11 12 13 14 15 16 17 18 19 20 21 22 23 24 25 26 27 28 29 30 31
000
FTUS41 KCTP 231906 AAB
TAFJST
TAF AMD
KJST 231906Z 2319/2418 30010G15KT P6SM VCTS SCT040CB
      TEMPO 2319/2320 1SM +TSRA BR OVC035CB
     FM232300 29007KT P6SM SCT050
     FM240200 VRB03KT P6SM SKC
     FM240600 VRB03KT 3SM BR SKC
     FM241300 VRB02KT P6SM SKC=

USA.gov is the U.S. government's official web portal to all federal, state and local government web resources and services.